This is the latest recevied weather packets stored in our database for station/object WP3OF-5. If no packets are shown the sender has not sent any weather packets the latest 1 day(s).
| Time | Temp. | Humidity | Pressure | Rain* | Wind** | Luminosity | Snow |
|---|---|---|---|---|---|---|---|
| 1778077731 | 30.56° C | 53% | 1019.2 hPa | 0 mm | - | - | - |
| 1778075916 | 30.56° C | 56% | 1019.1 hPa | 0 mm | - | - | - |
| 1778075612 | 30.56° C | 58% | 1019.3 hPa | 0 mm | - | - | - |
| 1778075005 | 30° C | 56% | 1019.3 hPa | 0 mm | - | - | - |
| 1778074096 | 29.44° C | 56% | 1019.2 hPa | 0 mm | - | - | - |
| 1778073793 | 28.89° C | 60% | 1019.3 hPa | 0 mm | - | - | - |
| 1778073491 | 28.33° C | 63% | 1019.2 hPa | 0 mm | - | - | - |
| 1778072279 | 26.67° C | 72% | 1019.2 hPa | 0 mm | - | - | - |
| 1778071976 | 26.11° C | 75% | 1019.2 hPa | 0 mm | - | - | - |
| 1778070464 | 23.89° C | 87% | 1018.8 hPa | 0 mm | - | - | - |
| 1778069556 | 22.78° C | 93% | 1018.7 hPa | 0 mm | - | - | - |
| 1778069253 | 22.22° C | 93% | 1019 hPa | 0 mm | - | - | - |
| 1778068951 | 22.22° C | 93% | 1018.7 hPa | 0 mm | - | - | - |
| 1778067440 | 21.11° C | 96% | 1018.6 hPa | 0 mm | - | - | - |
| 1778067137 | 20.56° C | 97% | 1018.6 hPa | 0 mm | - | - | - |
| 1778066833 | 20.56° C | 97% | 1018.6 hPa | 0 mm | - | - | - |
| 1778066531 | 20.56° C | 98% | 1018.2 hPa | 0 mm | - | - | - |
| 1778066228 | 20° C | 98% | 1018.4 hPa | 0 mm | - | - | - |
| 1778065926 | 19.44° C | 98% | 1018.4 hPa | 0 mm | - | - | - |
| 1778065623 | 18.89° C | 98% | 1018.6 hPa | 0 mm | - | - | - |
| 1778065017 | 18.89° C | 98% | 1018.7 hPa | 0 mm | - | - | - |
| 1778064412 | 18.33° C | 98% | 1018.4 hPa | 0 mm | - | - | - |
| 1778063503 | 18.33° C | 98% | 1018.5 hPa | 0 mm | - | - | - |
| 1778063201 | 18.33° C | 98% | 1018.4 hPa | 0 mm | - | - | - |
| 1778062595 | 18.33° C | 98% | 1017.9 hPa | 0 mm | - | - | - |
* Rain latest hour (hover to see other rain measurements)
** Current wind speed in m/s (hover to see current wind gust speed)